Time;durP1;ratioP1;P1;durP2;ratioP2;P2;SDS_P1;SDS_P2;PMS_P1;PMS_P2;Temp;Humidity;BMP_temperature;BMP_pressure;BME280_temperature;BME280_humidity;BME280_pressure;Samples;Min_cycle;Max_cycle;Signal;HPM_P1;HPM_P2
2023/04/15 00:01:25;;;;;;;2.22;1.30;;;5.50;99.90;;;;;;5032631;28;20053;-86
2023/04/15 00:03:53;;;;;;;2.78;1.50;;;4.10;99.90;;;;;;5032242;28;20057;-86
2023/04/15 00:06:20;;;;;;;3.63;1.42;;;5.40;99.90;;;;;;5032567;28;20046;-86
2023/04/15 00:08:51;;;;;;;5.13;1.42;;;5.50;99.90;;;;;;5015295;28;20057;-85
2023/04/15 00:11:18;;;;;;;4.57;1.33;;;5.50;99.90;;;;;;4998019;28;20045;-86
2023/04/15 00:13:45;;;;;;;3.38;1.42;;;5.40;99.90;;;;;;5014555;28;20114;-86
2023/04/15 00:16:11;;;;;;;3.95;1.52;;;5.40;99.90;;;;;;4998565;28;20049;-86
2023/04/15 00:18:37;;;;;;;3.72;1.50;;;5.30;99.90;;;;;;5026027;28;20136;-86
2023/04/15 00:21:06;;;;;;;4.28;1.30;;;5.40;99.90;;;;;;5015359;28;20398;-86
2023/04/15 00:23:32;;;;;;;2.05;1.27;;;6.20;99.90;;;;;;5014422;28;20517;-86
2023/04/15 00:25:58;;;;;;;3.05;1.48;;;6.10;99.90;;;;;;5031973;28;20126;-86
2023/04/15 00:28:24;;;;;;;2.92;1.30;;;5.80;99.90;;;;;;5032376;28;20048;-86
2023/04/15 00:30:50;;;;;;;5.50;1.42;;;5.30;99.90;;;;;;5032773;28;20037;-86
2023/04/15 00:33:16;;;;;;;4.43;1.88;;;5.20;99.90;;;;;;5031236;28;20045;-86
2023/04/15 00:35:42;;;;;;;6.93;2.17;;;5.80;99.90;;;;;;5014436;28;20049;-86
2023/04/15 00:38:08;;;;;;;3.72;1.80;;;5.20;99.90;;;;;;5027458;28;20056;-86
2023/04/15 00:40:34;;;;;;;6.35;1.83;;;5.20;99.90;;;;;;5012304;28;20045;-86
2023/04/15 00:43:00;;;;;;;4.45;2.10;;;5.60;99.90;;;;;;5028693;28;20041;-86
2023/04/15 00:45:27;;;;;;;3.83;1.67;;;5.40;99.90;;;;;;5014484;28;20041;-85
2023/04/15 00:47:53;;;;;;;3.42;1.55;;;5.10;99.90;;;;;;5018825;28;20045;-86
2023/04/15 00:50:18;;;;;;;4.80;2.00;;;5.10;99.90;;;;;;5036491;28;20046;-86
2023/04/15 00:52:45;;;;;;;3.17;1.33;;;5.90;99.90;;;;;;5035725;28;20108;-86
2023/04/15 00:55:10;;;;;;;3.65;2.22;;;5.10;99.90;;;;;;5001975;28;20041;-86
2023/04/15 00:57:39;;;;;;;3.10;1.67;;;5.10;99.90;;;;;;5018445;28;20067;-86
2023/04/15 01:00:10;;;;;;;4.63;2.50;;;5.70;99.90;;;;;;5033906;28;20048;-85
2023/04/15 01:02:39;;;;;;;4.15;1.83;;;5.00;99.90;;;;;;5017635;28;20049;-85
2023/04/15 01:05:06;;;;;;;2.80;1.45;;;5.20;99.90;;;;;;5018368;28;20052;-86
2023/04/15 01:07:32;;;;;;;2.53;1.30;;;5.00;99.90;;;;;;5035651;28;20037;-86
2023/04/15 01:10:05;;;;;;;2.85;1.33;;;4.90;99.90;;;;;;5018324;28;20515;-86
2023/04/15 01:12:34;;;;;;;2.78;1.38;;;5.10;99.90;;;;;;5036280;28;20085;-86
2023/04/15 01:15:01;;;;;;;2.60;1.60;;;4.90;99.90;;;;;;5017754;28;20056;-86
2023/04/15 01:17:27;;;;;;;3.42;1.88;;;4.80;99.90;;;;;;5036026;28;20132;-86
2023/04/15 01:19:56;;;;;;;3.08;1.52;;;4.80;99.90;;;;;;5017881;28;20518;-86
2023/04/15 01:22:27;;;;;;;4.63;2.08;;;4.80;99.90;;;;;;5016859;28;20049;-85
2023/04/15 01:25:01;;;;;;;3.97;1.88;;;4.80;99.90;;;;;;5017678;28;20506;-86
2023/04/15 01:27:27;;;;;;;4.78;1.83;;;4.80;99.90;;;;;;5018169;28;20041;-85
2023/04/15 01:29:52;;;;;;;5.72;2.40;;;4.80;99.90;;;;;;5035303;28;20454;-85
2023/04/15 01:32:21;;;;;;;3.72;2.00;;;5.10;99.90;;;;;;5017743;28;20069;-85
2023/04/15 01:34:47;;;;;;;3.70;2.00;;;5.40;99.90;;;;;;5010912;28;20139;-86
2023/04/15 01:37:13;;;;;;;6.15;3.03;;;5.30;99.90;;;;;;5001090;28;20441;-86
2023/04/15 01:39:39;;;;;;;4.90;2.50;;;5.70;99.90;;;;;;5017687;28;20084;-86
2023/04/15 01:42:05;;;;;;;4.47;2.38;;;4.70;99.90;;;;;;5034623;28;20046;-86
2023/04/15 01:44:30;;;;;;;4.25;1.98;;;5.70;99.90;;;;;;5010939;28;20046;-85
2023/04/15 01:46:59;;;;;;;4.55;2.33;;;5.30;99.90;;;;;;5034601;28;20105;-86
2023/04/15 01:49:27;;;;;;;6.70;4.18;;;4.70;99.90;;;;;;5033329;28;20042;-86
2023/04/15 01:51:53;;;;;;;7.05;2.80;;;4.80;99.90;;;;;;5017394;28;20188;-86
2023/04/15 01:54:21;;;;;;;5.43;3.00;;;4.70;99.90;;;;;;5016943;28;20144;-85
2023/04/15 01:56:47;;;;;;;4.32;2.30;;;4.70;99.90;;;;;;5016699;28;20389;-85
2023/04/15 01:59:15;;;;;;;5.40;2.42;;;4.70;99.90;;;;;;5034557;28;20041;-86
2023/04/15 02:01:44;;;;;;;3.65;1.95;;;4.70;99.90;;;;;;5017101;28;20156;-86
2023/04/15 02:04:15;;;;;;;5.40;2.58;;;5.00;99.90;;;;;;5016593;28;20080;-86
2023/04/15 02:06:46;;;;;;;4.45;2.20;;;4.80;99.90;;;;;;5017377;28;20147;-85
2023/04/15 02:09:14;;;;;;;4.28;2.05;;;5.30;99.90;;;;;;5017178;28;20049;-86
2023/04/15 02:11:40;;;;;;;6.15;1.98;;;5.50;99.90;;;;;;5016948;28;20037;-86
2023/04/15 02:14:06;;;;;;;4.35;2.42;;;4.70;99.90;;;;;;5015961;28;20062;-86
2023/04/15 02:16:32;;;;;;;4.90;2.63;;;4.90;99.90;;;;;;5016156;28;20053;-85
2023/04/15 02:19:02;;;;;;;4.70;2.65;;;4.60;99.90;;;;;;5016915;28;20457;-84
2023/04/15 02:21:30;;;;;;;7.15;3.70;;;4.60;99.90;;;;;;5016660;28;20053;-85
2023/04/15 02:23:56;;;;;;;7.47;3.95;;;5.40;99.90;;;;;;4999807;28;20044;-85
2023/04/15 02:26:25;;;;;;;6.30;3.15;;;5.10;99.90;;;;;;5015996;28;20133;-86
2023/04/15 02:28:51;;;;;;;6.03;3.35;;;5.50;99.90;;;;;;5016433;28;20128;-85
2023/04/15 02:31:20;;;;;;;5.25;3.08;;;4.50;99.90;;;;;;5033705;28;20124;-87
2023/04/15 02:33:46;;;;;;;5.70;3.00;;;4.50;99.90;;;;;;5016372;28;20084;-84
2023/04/15 02:36:15;;;;;;;5.00;2.72;;;4.40;99.90;;;;;;5016202;28;20037;-85
2023/04/15 02:38:41;;;;;;;7.05;2.90;;;4.40;99.90;;;;;;5026328;28;20099;-87
2023/04/15 02:41:10;;;;;;;5.57;3.15;;;4.10;99.90;;;;;;5000130;28;20459;-86
2023/04/15 02:43:38;;;;;;;4.57;2.90;;;4.40;99.90;;;;;;5009524;28;20561;-86
2023/04/15 02:46:04;;;;;;;5.28;2.65;;;4.40;99.90;;;;;;5016475;28;20052;-86
2023/04/15 02:48:31;;;;;;;5.20;2.70;;;4.30;99.90;;;;;;5033515;28;20134;-85
2023/04/15 02:51:18;;;;;;;5.90;2.88;;;4.30;99.90;;;;;;4999720;28;20045;-86
2023/04/15 02:53:47;;;;;;;5.50;2.50;;;4.20;99.90;;;;;;5033295;28;20056;-85
2023/04/15 02:56:14;;;;;;;4.13;2.47;;;4.50;99.90;;;;;;5016314;28;20059;-86
2023/04/15 02:58:40;;;;;;;6.32;3.30;;;5.00;99.90;;;;;;5016116;28;20045;-85
2023/04/15 03:01:09;;;;;;;6.50;3.28;;;4.20;99.90;;;;;;5033743;28;20501;-85
2023/04/15 03:03:34;;;;;;;5.20;2.83;;;4.20;99.90;;;;;;5032897;28;20078;-86
2023/04/15 03:06:00;;;;;;;5.20;3.17;;;4.20;99.90;;;;;;5033348;28;20041;-86
2023/04/15 03:08:26;;;;;;;6.28;2.75;;;4.10;99.90;;;;;;5019080;28;20053;-86
2023/04/15 03:10:53;;;;;;;6.13;2.95;;;5.10;99.90;;;;;;5011879;28;20517;-86
2023/04/15 03:13:20;;;;;;;5.10;2.50;;;4.10;99.90;;;;;;5011954;28;20053;-86
2023/04/15 03:15:48;;;;;;;4.60;2.45;;;3.10;99.90;;;;;;5014053;28;20056;-86
2023/04/15 03:18:14;;;;;;;5.50;2.83;;;4.50;99.90;;;;;;5013007;28;20050;-85
2023/04/15 03:20:40;;;;;;;5.28;2.65;;;4.50;99.90;;;;;;5015488;28;20046;-87
2023/04/15 03:23:09;;;;;;;4.68;2.88;;;4.70;99.90;;;;;;5015272;28;20116;-85
2023/04/15 03:25:36;;;;;;;6.72;3.47;;;4.80;99.90;;;;;;5015626;28;20080;-85
2023/04/15 03:28:02;;;;;;;6.38;2.83;;;4.30;99.90;;;;;;5015715;28;20037;-85
2023/04/15 03:30:28;;;;;;;6.15;3.10;;;4.20;99.90;;;;;;5033238;28;20052;-85
2023/04/15 03:32:54;;;;;;;5.13;2.70;;;3.90;99.90;;;;;;5015499;28;20038;-85
2023/04/15 03:35:19;;;;;;;4.88;2.67;;;4.20;99.90;;;;;;5015136;28;20038;-85
2023/04/15 03:37:48;;;;;;;5.90;3.22;;;3.90;99.90;;;;;;5025377;28;20048;-85
2023/04/15 03:40:13;;;;;;;7.82;3.88;;;4.00;99.90;;;;;;4998802;28;20425;-85
2023/04/15 03:42:39;;;;;;;7.45;3.17;;;4.00;99.90;;;;;;5015356;28;20099;-85
2023/04/15 03:45:06;;;;;;;6.28;2.40;;;4.60;99.90;;;;;;5033215;28;20116;-85
2023/04/15 03:47:32;;;;;;;5.97;2.60;;;4.00;99.90;;;;;;5015184;28;20050;-85
2023/04/15 03:49:58;;;;;;;5.05;2.50;;;4.30;99.90;;;;;;5032438;28;20079;-85
2023/04/15 03:52:24;;;;;;;6.97;3.45;;;3.90;99.90;;;;;;5014689;28;20045;-85
2023/04/15 03:54:50;;;;;;;5.97;3.08;;;4.00;99.90;;;;;;5032265;28;20045;-84
2023/04/15 03:57:16;;;;;;;7.05;3.10;;;3.90;99.90;;;;;;5014668;28;20041;-85
2023/04/15 03:59:41;;;;;;;6.13;3.45;;;4.00;99.90;;;;;;5031895;28;20038;-85
2023/04/15 04:02:07;;;;;;;5.30;2.50;;;3.80;99.90;;;;;;5031876;28;20501;-85
2023/04/15 04:04:33;;;;;;;7.85;3.83;;;4.30;99.90;;;;;;5014870;28;20041;-85
2023/04/15 04:06:59;;;;;;;6.07;3.33;;;4.10;99.90;;;;;;5007905;28;20100;-85
2023/04/15 04:09:24;;;;;;;6.10;3.05;;;3.60;99.90;;;;;;5015068;28;20033;-85
2023/04/15 04:11:50;;;;;;;10.15;3.70;;;4.50;99.90;;;;;;5014943;28;20037;-86
2023/04/15 04:14:16;;;;;;;8.23;3.92;;;3.90;99.90;;;;;;5031927;28;20191;-85
2023/04/15 04:16:42;;;;;;;10.10;5.22;;;3.30;99.90;;;;;;5030483;28;20061;-85
2023/04/15 04:19:10;;;;;;;9.52;5.03;;;4.10;99.90;;;;;;5031409;28;20029;-85
2023/04/15 04:21:36;;;;;;;8.55;4.07;;;3.90;99.90;;;;;;5014909;28;20045;-85
2023/04/15 04:24:02;;;;;;;9.30;5.10;;;5.00;99.90;;;;;;5013825;28;20052;-85
2023/04/15 04:26:27;;;;;;;6.07;3.55;;;3.80;99.90;;;;;;5032532;28;20050;-85
2023/04/15 04:28:53;;;;;;;6.28;3.15;;;3.80;99.90;;;;;;5031986;28;20485;-86
2023/04/15 04:31:21;;;;;;;4.60;2.60;;;3.70;99.90;;;;;;5014498;28;20091;-86
2023/04/15 04:33:47;;;;;;;6.63;2.83;;;4.80;99.90;;;;;;5032298;28;20049;-85
2023/04/15 04:36:13;;;;;;;8.00;3.30;;;4.30;99.90;;;;;;5014224;28;20052;-85
2023/04/15 04:38:38;;;;;;;6.18;2.67;;;3.40;99.90;;;;;;5014258;28;20136;-85
2023/04/15 04:41:05;;;;;;;5.70;2.88;;;3.70;99.90;;;;;;5032423;28;20036;-85
2023/04/15 04:43:30;;;;;;;6.43;3.17;;;4.50;99.90;;;;;;5032499;28;20050;-85
2023/04/15 04:45:56;;;;;;;5.35;2.67;;;3.90;99.90;;;;;;5014250;28;20068;-85
2023/04/15 04:48:22;;;;;;;5.03;2.40;;;3.60;99.90;;;;;;5025290;28;20044;-85
2023/04/15 04:50:48;;;;;;;5.38;2.90;;;3.50;99.90;;;;;;5032358;28;20049;-85
2023/04/15 04:53:14;;;;;;;5.05;2.55;;;3.20;99.90;;;;;;5014785;28;20583;-85
2023/04/15 04:55:41;;;;;;;5.45;2.80;;;3.50;99.90;;;;;;5032417;28;20042;-85
2023/04/15 04:58:07;;;;;;;5.72;2.92;;;3.50;99.90;;;;;;5014409;28;20049;-85
2023/04/15 05:00:33;;;;;;;7.53;4.30;;;3.60;99.90;;;;;;5027029;28;20050;-85
2023/04/15 05:02:58;;;;;;;8.88;4.90;;;3.50;99.90;;;;;;5028901;28;20045;-85
2023/04/15 05:05:24;;;;;;;6.93;4.43;;;2.90;99.90;;;;;;5014814;28;20100;-86
2023/04/15 05:07:50;;;;;;;11.27;5.82;;;4.50;99.90;;;;;;5025642;28;20045;-86
2023/04/15 05:10:17;;;;;;;8.32;4.65;;;4.80;99.90;;;;;;5032323;28;20096;-85
2023/04/15 05:12:43;;;;;;;10.25;4.95;;;3.60;99.90;;;;;;5014668;28;20049;-85
2023/04/15 05:15:09;;;;;;;9.25;5.25;;;3.90;99.90;;;;;;5031561;28;20140;-85
2023/04/15 05:17:35;;;;;;;8.35;4.68;;;3.90;99.90;;;;;;5025563;28;20123;-85
2023/04/15 05:20:02;;;;;;;8.85;4.85;;;3.90;99.90;;;;;;5014340;28;20093;-86
2023/04/15 05:22:28;;;;;;;10.63;5.10;;;3.60;99.90;;;;;;5031271;28;20512;-86
2023/04/15 05:24:56;;;;;;;12.27;6.22;;;4.60;99.90;;;;;;4998429;28;20044;-86
2023/04/15 05:27:22;;;;;;;12.30;5.03;;;4.10;99.90;;;;;;4995911;28;20053;-85
2023/04/15 05:29:48;;;;;;;9.38;4.57;;;4.20;99.90;;;;;;5031924;28;20045;-86
2023/04/15 05:32:14;;;;;;;10.15;5.30;;;3.70;99.90;;;;;;5017239;28;20378;-85
2023/04/15 05:34:42;;;;;;;10.63;4.28;;;4.80;99.90;;;;;;5017948;28;20049;-85
2023/04/15 05:37:08;;;;;;;9.68;4.55;;;4.40;99.90;;;;;;5017557;28;20059;-85
2023/04/15 05:39:34;;;;;;;12.23;5.95;;;4.50;99.90;;;;;;5001354;28;20045;-85
2023/04/15 05:42:00;;;;;;;10.77;5.18;;;4.60;99.90;;;;;;5035035;28;20049;-85
2023/04/15 05:44:28;;;;;;;15.50;6.43;;;3.80;99.90;;;;;;5017008;28;20075;-86
2023/04/15 05:46:54;;;;;;;12.65;7.03;;;5.50;99.90;;;;;;5013212;28;20053;-86
2023/04/15 05:49:23;;;;;;;11.32;5.47;;;4.90;99.90;;;;;;4998541;28;20564;-87
2023/04/15 05:51:51;;;;;;;10.88;5.18;;;5.10;99.90;;;;;;5017015;28;20548;-85
2023/04/15 05:54:17;;;;;;;11.68;5.53;;;5.10;99.90;;;;;;5016978;28;20041;-82
2023/04/15 05:56:43;;;;;;;12.15;5.32;;;5.20;99.90;;;;;;5014704;28;20053;-86
2023/04/15 05:59:09;;;;;;;11.88;5.72;;;5.50;99.90;;;;;;5031115;28;20132;-87
2023/04/15 06:01:36;;;;;;;10.25;5.32;;;6.20;99.90;;;;;;5034985;28;20037;-86
2023/04/15 06:04:02;;;;;;;11.95;5.65;;;5.50;99.90;;;;;;5035296;28;20041;-87
2023/04/15 06:06:28;;;;;;;10.55;5.00;;;5.60;99.90;;;;;;5017164;28;20095;-85
2023/04/15 06:08:54;;;;;;;9.48;4.90;;;6.50;99.90;;;;;;5016569;28;20124;-86
2023/04/15 06:11:20;;;;;;;7.40;3.35;;;5.70;99.90;;;;;;5017487;28;20147;-85
2023/04/15 06:13:46;;;;;;;10.25;4.35;;;5.80;99.90;;;;;;5017125;28;20055;-84
2023/04/15 06:16:14;;;;;;;9.68;4.85;;;5.70;99.90;;;;;;5034524;28;20383;-86
2023/04/15 06:18:40;;;;;;;8.52;4.40;;;5.90;99.90;;;;;;5009927;28;20056;-83
2023/04/15 06:21:06;;;;;;;6.10;2.95;;;5.80;99.90;;;;;;5033996;28;20041;-84
2023/04/15 06:23:35;;;;;;;7.50;3.72;;;5.80;99.90;;;;;;5030624;28;20053;-82
2023/04/15 06:26:02;;;;;;;6.28;3.20;;;6.00;99.90;;;;;;5016293;28;20052;-83
2023/04/15 06:28:27;;;;;;;6.10;3.65;;;6.30;99.90;;;;;;5002474;28;20049;-84
2023/04/15 06:30:54;;;;;;;7.20;3.17;;;6.40;99.90;;;;;;5016958;28;20136;-85
2023/04/15 06:33:20;;;;;;;10.77;5.07;;;6.10;99.90;;;;;;4999906;28;20037;-85
2023/04/15 06:35:46;;;;;;;6.90;3.53;;;7.20;99.90;;;;;;5016325;28;20045;-85
2023/04/15 06:38:13;;;;;;;7.40;4.00;;;6.60;99.90;;;;;;4998899;28;20037;-85
2023/04/15 06:40:39;;;;;;;8.77;3.40;;;6.70;99.90;;;;;;5016470;28;20514;-84
2023/04/15 06:43:08;;;;;;;10.50;4.50;;;7.00;99.90;;;;;;5033189;28;20556;-85
2023/04/15 06:45:34;;;;;;;11.05;4.53;;;7.10;99.90;;;;;;5009234;28;20124;-85
2023/04/15 06:48:00;;;;;;;8.55;3.90;;;8.00;99.90;;;;;;5033295;28;20041;-84
2023/04/15 06:50:26;;;;;;;9.90;5.40;;;7.90;99.90;;;;;;5033554;28;20033;-85
2023/04/15 06:52:53;;;;;;;10.82;5.50;;;7.60;99.90;;;;;;5033042;28;20034;-82
2023/04/15 06:55:19;;;;;;;11.10;4.80;;;8.20;99.90;;;;;;5015933;28;20037;-83
2023/04/15 06:57:45;;;;;;;11.77;5.80;;;7.80;99.90;;;;;;5014580;28;20489;-83
2023/04/15 07:00:11;;;;;;;10.30;4.72;;;7.90;99.90;;;;;;5033494;28;20049;-87
2023/04/15 07:02:37;;;;;;;9.80;4.55;;;8.00;99.90;;;;;;5027228;28;20037;-86
2023/04/15 07:05:06;;;;;;;10.20;4.18;;;8.00;99.90;;;;;;5015646;28;20494;-84
2023/04/15 07:07:32;;;;;;;11.07;4.68;;;8.10;99.90;;;;;;5014417;28;20398;-83
2023/04/15 07:09:58;;;;;;;8.13;4.55;;;8.50;99.90;;;;;;5033390;28;20045;-83
2023/04/15 07:12:23;;;;;;;9.15;4.18;;;8.40;99.90;;;;;;5034149;28;20056;-83
2023/04/15 07:14:49;;;;;;;7.57;3.50;;;8.10;99.90;;;;;;5033869;28;20045;-83
2023/04/15 07:17:15;;;;;;;9.68;4.15;;;8.10;99.90;;;;;;5034004;28;20498;-83
2023/04/15 07:19:41;;;;;;;8.77;4.00;;;7.90;99.90;;;;;;5034008;28;20894;-82
2023/04/15 07:22:06;;;;;;;7.65;4.38;;;8.20;99.90;;;;;;4999781;28;20484;-83
2023/04/15 07:24:32;;;;;;;7.35;3.58;;;8.30;99.90;;;;;;5033944;28;20418;-83
2023/04/15 07:26:58;;;;;;;6.55;3.67;;;8.10;99.90;;;;;;5016436;28;20148;-83
2023/04/15 07:29:25;;;;;;;5.63;3.17;;;8.30;99.90;;;;;;5033623;28;20061;-83
2023/04/15 07:31:51;;;;;;;8.13;3.72;;;8.30;99.90;;;;;;5033792;28;20124;-83
2023/04/15 07:34:19;;;;;;;8.55;4.22;;;8.40;99.90;;;;;;5033642;28;20093;-83
2023/04/15 07:36:49;;;;;;;10.23;3.80;;;8.60;99.90;;;;;;5016252;28;20490;-83
2023/04/15 07:39:15;;;;;;;8.25;3.47;;;8.50;99.90;;;;;;5016520;28;20496;-83
2023/04/15 07:41:41;;;;;;;7.20;3.33;;;8.70;99.90;;;;;;5033706;28;20046;-83
2023/04/15 07:44:07;;;;;;;5.38;3.22;;;8.60;99.90;;;;;;5015890;28;20076;-83
2023/04/15 07:46:32;;;;;;;9.27;3.80;;;9.20;99.90;;;;;;5016007;28;20462;-83
2023/04/15 07:48:58;;;;;;;7.63;3.80;;;9.10;99.90;;;;;;5015767;28;20057;-83
2023/04/15 07:51:24;;;;;;;6.72;3.88;;;8.70;99.90;;;;;;5033382;28;20048;-83
2023/04/15 07:53:50;;;;;;;8.10;3.85;;;9.00;99.90;;;;;;5032715;28;20073;-83
2023/04/15 07:56:16;;;;;;;7.15;3.40;;;8.80;99.90;;;;;;5033512;28;20092;-83
2023/04/15 07:58:42;;;;;;;5.90;3.45;;;8.80;99.90;;;;;;5033271;28;20045;-83
2023/04/15 08:01:08;;;;;;;7.03;3.28;;;9.70;99.90;;;;;;5033458;28;20583;-83
2023/04/15 08:03:34;;;;;;;7.60;3.10;;;9.50;99.90;;;;;;5033329;28;20052;-83
2023/04/15 08:05:59;;;;;;;7.45;3.45;;;8.80;99.90;;;;;;5015668;28;20052;-83
2023/04/15 08:08:26;;;;;;;6.53;2.45;;;9.50;99.90;;;;;;5033631;28;20103;-83
2023/04/15 08:10:51;;;;;;;6.97;2.60;;;8.70;99.90;;;;;;5015486;28;20117;-83
2023/04/15 08:13:17;;;;;;;5.68;3.05;;;8.70;99.90;;;;;;5015346;28;20069;-83
2023/04/15 08:15:43;;;;;;;8.25;2.92;;;9.50;99.90;;;;;;5033113;28;20387;-83
2023/04/15 08:18:10;;;;;;;6.80;2.70;;;8.70;99.90;;;;;;5033372;28;20045;-83
2023/04/15 08:20:36;;;;;;;5.75;2.50;;;8.70;99.90;;;;;;5033277;28;20553;-82
2023/04/15 08:23:03;;;;;;;6.45;2.60;;;8.90;99.90;;;;;;5015214;28;20053;-83
2023/04/15 08:25:29;;;;;;;4.50;2.20;;;8.70;99.90;;;;;;5033234;28;20041;-83
2023/04/15 08:27:58;;;;;;;5.18;1.98;;;8.60;99.90;;;;;;5015428;28;20056;-83
2023/04/15 08:30:24;;;;;;;3.70;1.65;;;8.60;99.90;;;;;;5015343;28;20556;-83
2023/04/15 08:32:50;;;;;;;6.45;1.77;;;8.60;99.90;;;;;;5015368;28;20053;-82
2023/04/15 08:35:16;;;;;;;2.97;1.88;;;9.40;99.90;;;;;;5015062;28;20034;-83
2023/04/15 08:37:41;;;;;;;4.72;1.33;;;8.60;99.90;;;;;;5015237;28;20046;-83
2023/04/15 08:40:10;;;;;;;4.30;1.33;;;8.50;99.90;;;;;;5015181;28;20037;-83
2023/04/15 08:42:40;;;;;;;2.42;1.33;;;8.50;99.90;;;;;;5015236;28;20136;-83
2023/04/15 08:45:09;;;;;;;4.20;1.35;;;8.70;99.90;;;;;;5033085;28;20041;-83
2023/04/15 08:47:37;;;;;;;4.22;1.25;;;8.70;99.90;;;;;;5032999;28;20371;-83
2023/04/15 08:50:04;;;;;;;2.17;1.05;;;8.70;99.90;;;;;;5032773;28;20052;-84
2023/04/15 08:52:33;;;;;;;3.50;0.98;;;8.80;99.90;;;;;;4998669;28;20104;-82
2023/04/15 08:55:02;;;;;;;3.95;1.15;;;8.70;99.90;;;;;;5015066;28;20056;-83
2023/04/15 08:57:28;;;;;;;1.48;0.80;;;9.50;99.90;;;;;;5015182;28;20045;-83
2023/04/15 08:59:57;;;;;;;2.80;0.93;;;8.90;99.90;;;;;;5032393;28;20513;-83
2023/04/15 09:02:26;;;;;;;3.05;1.58;;;8.70;99.90;;;;;;5014717;28;20054;-83
2023/04/15 09:04:52;;;;;;;1.88;0.90;;;8.70;99.90;;;;;;5034103;28;20058;-83
2023/04/15 09:07:18;;;;;;;3.08;0.88;;;8.80;99.90;;;;;;5036519;28;20122;-83
2023/04/15 09:09:44;;;;;;;3.75;0.82;;;9.30;99.90;;;;;;5018351;28;20502;-83
2023/04/15 09:12:11;;;;;;;1.60;0.75;;;9.00;99.90;;;;;;5036180;28;20056;-83
2023/04/15 09:14:39;;;;;;;1.40;0.65;;;9.40;99.90;;;;;;5036085;28;20060;-83
2023/04/15 09:17:08;;;;;;;4.38;0.90;;;9.10;99.90;;;;;;5018367;28;20084;-83
2023/04/15 09:19:34;;;;;;;2.50;0.90;;;9.70;99.90;;;;;;5036055;28;20104;-84
2023/04/15 09:22:01;;;;;;;1.40;0.63;;;9.30;99.90;;;;;;5036258;28;20033;-83
2023/04/15 09:24:36;;;;;;;4.78;0.75;;;9.40;99.90;;;;;;5036273;28;20076;-83
2023/04/15 09:27:02;;;;;;;3.08;0.70;;;10.00;99.90;;;;;;5036140;28;20135;-84
2023/04/15 09:29:28;;;;;;;2.55;0.75;;;9.60;99.90;;;;;;5035880;28;20450;-83
2023/04/15 09:31:53;;;;;;;1.15;0.60;;;9.60;99.90;;;;;;5036547;28;20053;-83
2023/04/15 09:34:20;;;;;;;1.27;0.50;;;9.90;99.90;;;;;;5035753;28;20076;-83
2023/04/15 09:36:55;;;;;;;4.28;1.35;;;9.50;99.90;;;;;;5018382;28;20045;-83
2023/04/15 09:39:20;;;;;;;1.25;0.60;;;9.60;99.90;;;;;;5018182;28;20055;-83
2023/04/15 09:41:46;;;;;;;4.13;0.80;;;9.60;99.90;;;;;;5035862;28;20148;-83
2023/04/15 09:44:25;;;;;;;2.80;0.80;;;10.00;99.90;;;;;;5018040;28;20135;-83
2023/04/15 09:46:51;;;;;;;3.40;0.70;;;9.70;99.90;;;;;;5035555;28;20045;-83
2023/04/15 09:49:17;;;;;;;3.85;0.77;;;9.70;99.90;;;;;;5035889;28;20038;-84
2023/04/15 09:51:44;;;;;;;3.80;0.65;;;9.70;99.90;;;;;;5017856;28;20045;-83
2023/04/15 09:54:10;;;;;;;1.92;0.60;;;10.10;99.90;;;;;;5035421;28;20489;-84
2023/04/15 09:56:41;;;;;;;1.70;0.75;;;9.90;99.90;;;;;;5035541;28;20041;-83
2023/04/15 09:59:08;;;;;;;1.00;0.52;;;9.80;99.90;;;;;;5017800;28;20042;-83
2023/04/15 10:01:39;;;;;;;1.58;0.45;;;9.80;99.90;;;;;;5035638;28;20037;-83
2023/04/15 10:04:05;;;;;;;1.80;0.98;;;9.80;99.90;;;;;;5035705;28;20128;-83
2023/04/15 10:06:33;;;;;;;4.13;0.63;;;9.90;99.90;;;;;;5035489;28;20417;-83
2023/04/15 10:09:00;;;;;;;2.22;0.70;;;9.90;99.90;;;;;;5035802;28;20068;-83
2023/04/15 10:11:30;;;;;;;1.38;0.77;;;9.90;99.90;;;;;;5017816;28;20510;-83
2023/04/15 10:13:57;;;;;;;4.57;0.82;;;10.40;99.90;;;;;;5017331;28;20053;-83
2023/04/15 10:16:27;;;;;;;4.55;1.15;;;9.90;99.90;;;;;;5034531;28;20037;-83
2023/04/15 10:18:57;;;;;;;4.63;1.00;;;9.80;99.90;;;;;;5034197;28;20052;-83
2023/04/15 10:21:23;;;;;;;4.55;0.93;;;9.90;99.90;;;;;;5035421;28;20045;-83
2023/04/15 10:23:50;;;;;;;2.72;0.80;;;9.90;99.90;;;;;;5017729;28;20140;-83
2023/04/15 10:26:16;;;;;;;2.75;0.88;;;9.80;99.90;;;;;;5035201;28;20112;-83
2023/04/15 10:28:43;;;;;;;2.70;0.70;;;9.80;99.90;;;;;;5034061;28;20050;-83
2023/04/15 10:31:12;;;;;;;2.95;0.90;;;9.90;99.90;;;;;;5017375;28;20037;-83
2023/04/15 10:33:38;;;;;;;4.63;1.02;;;9.90;99.90;;;;;;5016721;28;20071;-83
2023/04/15 10:36:06;;;;;;;3.38;1.10;;;9.90;99.90;;;;;;5035083;28;20037;-84
2023/04/15 10:38:43;;;;;;;3.65;1.00;;;9.90;99.90;;;;;;5035143;28;20049;-83
2023/04/15 10:41:13;;;;;;;3.05;0.90;;;9.90;99.90;;;;;;5034715;28;20045;-83
2023/04/15 10:43:44;;;;;;;2.28;1.02;;;9.90;99.90;;;;;;5016935;28;20071;-83
2023/04/15 10:46:10;;;;;;;2.97;0.90;;;10.30;99.90;;;;;;5034788;28;20124;-83
2023/04/15 10:48:35;;;;;;;1.75;0.80;;;9.90;99.90;;;;;;5017291;28;20089;-83
2023/04/15 10:51:03;;;;;;;2.75;1.02;;;10.00;99.90;;;;;;5033647;28;20445;-83
2023/04/15 10:53:30;;;;;;;4.35;1.17;;;10.00;99.90;;;;;;5034617;28;20053;-84
2023/04/15 10:55:59;;;;;;;4.32;0.80;;;10.20;99.90;;;;;;5016636;28;20506;-84
2023/04/15 10:58:24;;;;;;;3.65;1.10;;;10.00;99.90;;;;;;5034144;28;20049;-84
2023/04/15 11:00:52;;;;;;;6.70;1.23;;;10.00;99.90;;;;;;5034194;28;20063;-84
2023/04/15 11:03:37;;;;;;;4.13;0.80;;;9.80;99.90;;;;;;5016843;28;20061;-83
2023/04/15 11:06:05;;;;;;;6.57;1.00;;;10.00;99.90;;;;;;5034598;28;20509;-83
2023/04/15 11:08:58;;;;;;;3.92;0.77;;;10.00;99.90;;;;;;5008768;28;20046;-84
2023/04/15 11:12:18;;;;;;;5.68;0.80;;;10.20;99.90;;;;;;5016628;28;20049;-84
2023/04/15 11:14:46;;;;;;;1.83;0.50;;;10.10;99.90;;;;;;4953959;28;20426;-84
2023/04/15 11:17:12;;;;;;;6.03;0.77;;;10.10;99.90;;;;;;4938123;28;20130;-83
2023/04/15 11:19:38;;;;;;;3.75;0.70;;;10.10;99.90;;;;;;4954079;28;20142;-83
2023/04/15 11:22:10;;;;;;;8.10;1.00;;;10.20;99.90;;;;;;4953947;28;20043;-83
2023/04/15 11:24:45;;;;;;;3.33;1.00;;;10.30;99.90;;;;;;4954044;28;20051;-84
2023/04/15 11:27:20;;;;;;;2.63;0.88;;;10.30;99.90;;;;;;4953974;28;20156;-84
2023/04/15 11:29:46;;;;;;;4.38;0.82;;;10.20;99.90;;;;;;4937719;28;20059;-83
2023/04/15 11:32:12;;;;;;;5.05;0.93;;;10.10;99.90;;;;;;4953732;28;20058;-83
2023/04/15 11:34:37;;;;;;;7.55;1.08;;;10.10;99.90;;;;;;4938088;28;20086;-84
2023/04/15 11:37:05;;;;;;;4.25;1.10;;;10.00;99.90;;;;;;4937613;29;20119;-84
2023/04/15 11:39:33;;;;;;;6.50;0.93;;;10.10;99.90;;;;;;4937695;29;20055;-84
2023/04/15 11:41:59;;;;;;;6.60;0.80;;;10.10;99.90;;;;;;4953649;28;20061;-84
2023/04/15 11:44:25;;;;;;;8.82;1.00;;;10.10;99.90;;;;;;4953366;28;20051;-83
2023/04/15 11:46:50;;;;;;;3.42;0.70;;;10.10;99.90;;;;;;4954048;28;20047;-83
2023/04/15 11:49:33;;;;;;;4.68;0.80;;;10.10;99.90;;;;;;4995686;28;20046;-83
2023/04/15 11:52:00;;;;;;;2.42;0.90;;;10.00;99.90;;;;;;5015908;28;20080;-83
2023/04/15 11:54:28;;;;;;;2.67;0.65;;;10.00;99.90;;;;;;4999161;28;20049;-83
2023/04/15 11:56:53;;;;;;;4.85;0.70;;;10.00;99.90;;;;;;5033455;28;20045;-83
2023/04/15 11:59:19;;;;;;;2.83;0.70;;;10.10;99.90;;;;;;5033286;28;20568;-83
2023/04/15 12:01:46;;;;;;;7.88;1.20;;;10.10;99.90;;;;;;5033833;28;20045;-83
2023/04/15 12:04:14;;;;;;;5.15;0.70;;;10.80;99.90;;;;;;5015438;28;20049;-83
2023/04/15 12:06:40;;;;;;;4.68;0.90;;;10.10;99.90;;;;;;4999796;28;20486;-82
2023/04/15 12:09:06;;;;;;;10.43;1.08;;;10.20;99.90;;;;;;5015767;28;20049;-83
2023/04/15 12:11:38;;;;;;;4.78;1.13;;;10.20;99.90;;;;;;5033406;28;20141;-83
2023/04/15 12:14:06;;;;;;;3.30;1.00;;;10.20;99.90;;;;;;5033283;28;20053;-83
2023/04/15 12:16:45;;;;;;;1.60;0.60;;;10.30;99.90;;;;;;5015566;28;20076;-83
2023/04/15 12:19:15;;;;;;;6.20;0.88;;;10.30;99.90;;;;;;5033328;28;20041;-83
2023/04/15 12:21:44;;;;;;;5.38;0.80;;;10.20;99.90;;;;;;5015515;28;20053;-83
2023/04/15 12:24:13;;;;;;;4.95;1.48;;;10.30;99.90;;;;;;5015516;28;20513;-83
2023/04/15 12:26:45;;;;;;;2.58;0.60;;;10.30;99.90;;;;;;5033386;28;20065;-84
2023/04/15 12:29:13;;;;;;;3.03;0.65;;;10.30;99.90;;;;;;5015701;28;20188;-83
2023/04/15 12:31:54;;;;;;;2.67;0.70;;;10.20;99.90;;;;;;5033130;28;20106;-83
2023/04/15 12:34:34;;;;;;;4.25;0.88;;;10.30;99.90;;;;;;5033012;28;20049;-83
2023/04/15 12:37:03;;;;;;;5.72;0.63;;;10.20;99.90;;;;;;5015492;28;20394;-83
2023/04/15 12:39:31;;;;;;;3.10;0.55;;;10.30;99.90;;;;;;5034099;28;20041;-83
2023/04/15 12:42:00;;;;;;;6.03;0.80;;;10.20;99.90;;;;;;5019347;28;20045;-83
2023/04/15 12:44:30;;;;;;;9.75;0.80;;;10.20;99.90;;;;;;5037231;28;20059;-83
2023/04/15 12:46:56;;;;;;;4.90;0.50;;;10.20;99.90;;;;;;5036966;28;20402;-83
2023/04/15 12:49:23;;;;;;;8.77;0.80;;;10.20;99.90;;;;;;5037030;28;20071;-84
2023/04/15 12:51:52;;;;;;;7.53;0.80;;;10.20;99.90;;;;;;5003085;28;20073;-83
2023/04/15 12:54:18;;;;;;;1.55;0.60;;;10.10;99.90;;;;;;5037018;28;20057;-83
2023/04/15 12:56:45;;;;;;;2.75;0.60;;;9.90;99.90;;;;;;5037179;28;20045;-83